NORTHEAST SUFFOLK  -  Winter Weather Advisory Winter Weather Advisory        NORTHERN NASSAU  -  Winter Weather Advisory Winter Weather Advisory        NORTHWEST SUFFOLK  -  Winter Weather Advisory Winter Weather Advisory        SOUTHEAST SUFFOLK  -  Winter Weather Advisory Winter Weather Advisory        SOUTHERN NASSAU  -  Winter Weather Advisory Winter Weather Advisory        SOUTHWEST SUFFOLK  -  Winter Weather Advisory Winter Weather Advisory      

Active alerts

Northern Nassau
  Details for Northern Nassau Winter Weather Advisory
Southern Nassau
  Details for Southern Nassau Winter Weather Advisory
Northwest Suffolk
  Details for Northwest Suffolk Winter Weather Advisory
Southwest Suffolk
  Details for Southwest Suffolk Winter Weather Advisory
Northeast Suffolk
  Details for Northeast Suffolk Winter Weather Advisory
Southeast Suffolk
  Details for Southeast Suffolk Winter Weather Advisory


WXM80 ListenWXM80 Stop

You find our weather info also at:

UK Metoffice

WeatherCloud

Weather Underground

Northeastern Weather Network

AWEKAS

Citizen Weather Observer Program (CWOP)

HAMweather, WeatherForYou, PWS Weather


Weather Underground History page Text

Daily Summary for July 31, 2016 Units:  English    Metric   Both
« Previous Day
Next Day »
Daily Weekly Monthly Yearly Custom
  High: Low: Average:
Temperature: 81.8 °F 71.5 °F 75.5 °F
Dew Point: 75.5 °F 69.7 °F 72.8 °F
Humidity: 98 % 78 % 92 %
Wind Speed: 8.3 mph 0.0 mph 1.2 mph
Wind Gust: 13.0 mph - -
Wind:- - ESE
Pressure: 30.01 in 29.95 in -
Precipitation: 0.02 in    
Historical Graphs
 
 
Tabular Data for July 31, 2016
Time Temperature Dew Point Pressure Wind Wind Speed Wind Gust Humidity Rainfall Rate (Hourly)
00:05 74.2 °F 72.7 °F 30.00 in Calm     95 % 0.00 in
00:10 74.1 °F 72.9 °F 30.00 in Calm     96 % 0.00 in
00:15 74.1 °F 72.9 °F 30.00 in Calm     96 % 0.00 in
00:20 74.1 °F 72.9 °F 30.00 in Calm     96 % 0.00 in
00:25 74.1 °F 72.9 °F 30.00 in Calm     96 % 0.00 in
00:30 74.1 °F 72.9 °F 29.99 in Calm     96 % 0.00 in
00:35 74.0 °F 72.8 °F 30.00 in Calm     96 % 0.00 in
00:40 74.0 °F 72.8 °F 29.99 in Calm     96 % 0.00 in
00:45 74.0 °F 72.8 °F 29.99 in Calm     96 % 0.00 in
00:50 74.0 °F 72.8 °F 30.00 in Calm     96 % 0.00 in
00:56 74.1 °F 72.9 °F 29.99 in WSW 0.3 mph 1.2 mph 96 % 0.00 in
01:01 74.0 °F 72.8 °F 29.99 in Calm     96 % 0.00 in
01:06 74.0 °F 72.8 °F 30.00 in Calm     96 % 0.00 in
01:11 74.0 °F 72.8 °F 30.00 in Calm     96 % 0.00 in
01:16 74.0 °F 72.8 °F 30.00 in WSW 0.1 mph 1.2 mph 96 % 0.00 in
01:21 74.0 °F 72.8 °F 29.99 in Calm   1.2 mph 96 % 0.00 in
01:26 74.0 °F 72.8 °F 29.99 in Calm   1.2 mph 96 % 0.00 in
01:31 74.0 °F 72.8 °F 29.99 in Calm     96 % 0.00 in
01:36 74.0 °F 72.8 °F 29.99 in Calm     96 % 0.00 in
01:41 74.0 °F 72.8 °F 29.98 in Calm     96 % 0.00 in
01:47 74.1 °F 72.9 °F 29.98 in Calm   1.2 mph 96 % 0.00 in
01:52 74.0 °F 72.8 °F 29.98 in Calm     96 % 0.00 in
01:57 74.0 °F 72.8 °F 29.98 in Calm     96 % 0.00 in
02:02 74.0 °F 72.8 °F 29.98 in Calm     96 % 0.00 in
02:07 73.9 °F 72.7 °F 29.97 in Calm     96 % 0.00 in
02:12 73.9 °F 73.0 °F 29.97 in WSW 0.2 mph 1.0 mph 97 % 0.00 in
02:17 73.9 °F 73.0 °F 29.97 in Calm   1.2 mph 97 % 0.00 in
02:22 73.9 °F 73.0 °F 29.97 in Calm     97 % 0.00 in
02:27 73.8 °F 72.9 °F 29.97 in Calm     97 % 0.00 in
02:32 73.8 °F 72.9 °F 29.97 in Calm     97 % 0.00 in
02:38 73.8 °F 72.9 °F 29.97 in Calm     97 % 0.00 in
02:43 73.8 °F 72.9 °F 29.97 in Calm     97 % 0.00 in
02:48 73.7 °F 72.8 °F 29.96 in Calm     97 % 0.00 in
02:53 73.8 °F 72.9 °F 29.96 in Calm     97 % 0.00 in
02:58 73.7 °F 72.8 °F 29.96 in Calm     97 % 0.00 in
03:03 73.8 °F 72.9 °F 29.96 in Calm     97 % 0.00 in
03:08 73.7 °F 72.8 °F 29.96 in Calm     97 % 0.00 in
03:13 73.7 °F 72.8 °F 29.96 in WSW 0.1 mph 1.2 mph 97 % 0.00 in
03:18 73.7 °F 72.8 °F 29.96 in Calm     97 % 0.00 in
03:23 73.6 °F 72.7 °F 29.96 in Calm   1.2 mph 97 % 0.00 in
03:29 73.5 °F 72.6 °F 29.96 in Calm   2.3 mph 97 % 0.00 in
03:34 73.4 °F 72.5 °F 29.96 in Calm   1.2 mph 97 % 0.00 in
03:39 73.3 °F 72.4 °F 29.95 in SSE 0.2 mph 1.2 mph 97 % 0.00 in
03:44 73.3 °F 72.4 °F 29.95 in Calm     97 % 0.00 in
03:49 73.2 °F 72.3 °F 29.96 in SSE 0.1 mph 1.2 mph 97 % 0.00 in
03:54 73.1 °F 72.2 °F 29.97 in Calm     97 % 0.00 in
03:59 73.1 °F 72.2 °F 29.97 in Calm     97 % 0.00 in
04:04 73.1 °F 72.2 °F 29.97 in Calm     97 % 0.00 in
04:09 73.0 °F 72.1 °F 29.97 in Calm     97 % 0.00 in
04:14 72.9 °F 71.7 °F 29.97 in Calm     96 % 0.00 in
04:20 72.9 °F 71.7 °F 29.97 in Calm     96 % 0.00 in
04:25 72.8 °F 71.6 °F 29.97 in Calm     96 % 0.00 in
04:30 72.8 °F 71.6 °F 29.97 in Calm     96 % 0.00 in
04:35 72.8 °F 71.6 °F 29.97 in Calm   1.2 mph 96 % 0.00 in
04:40 72.7 °F 71.8 °F 29.96 in SE 1.0 mph 3.5 mph 97 % 0.00 in
04:45 72.7 °F 71.8 °F 29.96 in SE 0.7 mph 3.5 mph 97 % 0.00 in
04:50 72.7 °F 71.8 °F 29.96 in SE 0.7 mph 2.3 mph 97 % 0.00 in
04:55 72.7 °F 71.8 °F 29.96 in SE 0.4 mph 3.0 mph 97 % 0.00 in
05:00 72.7 °F 71.8 °F 29.96 in SE 0.3 mph 1.2 mph 97 % 0.00 in
05:05 72.7 °F 71.8 °F 29.96 in SE 0.2 mph 1.2 mph 97 % 0.00 in
05:10 72.7 °F 71.8 °F 29.96 in Calm   3.0 mph 97 % 0.00 in
05:16 72.7 °F 71.8 °F 29.96 in Calm   2.0 mph 97 % 0.00 in
05:21 72.7 °F 71.8 °F 29.96 in Calm   1.0 mph 97 % 0.00 in
05:26 72.7 °F 71.8 °F 29.97 in Calm   1.0 mph 97 % 0.00 in
05:31 72.8 °F 71.9 °F 29.97 in Calm   1.0 mph 97 % 0.00 in
05:36 72.8 °F 71.9 °F 29.97 in Calm   2.0 mph 97 % 0.00 in
05:41 72.7 °F 71.8 °F 29.97 in Calm     97 % 0.00 in
05:46 72.7 °F 71.8 °F 29.97 in Calm   3.0 mph 97 % 0.00 in
05:51 72.8 °F 71.9 °F 29.97 in Calm   2.0 mph 97 % 0.00 in
05:56 72.8 °F 71.9 °F 29.98 in Calm   1.0 mph 97 % 0.00 in
06:01 72.8 °F 71.9 °F 29.98 in Calm     97 % 0.00 in
06:06 72.8 °F 71.9 °F 29.98 in Calm   1.0 mph 97 % 0.00 in
06:11 72.8 °F 71.9 °F 29.98 in Calm     97 % 0.00 in
06:15 72.8 °F 71.9 °F 29.98 in Calm     97 % 0.00 in
06:20 72.8 °F 71.9 °F 29.98 in Calm     97 % 0.00 in
06:26 72.8 °F 71.9 °F 29.98 in Calm     97 % 0.00 in
06:30 72.8 °F 71.9 °F 29.98 in Calm     97 % 0.00 in
06:35 72.8 °F 71.9 °F 29.98 in Calm     97 % 0.00 in
06:41 72.9 °F 72.0 °F 29.99 in Calm     97 % 0.00 in
06:46 72.9 °F 72.0 °F 29.99 in Calm     97 % 0.00 in
06:51 72.9 °F 72.0 °F 29.99 in Calm     97 % 0.00 in
06:55 73.0 °F 72.1 °F 29.99 in Calm     97 % 0.00 in
07:01 73.0 °F 72.1 °F 29.99 in Calm     97 % 0.00 in
07:06 73.0 °F 72.1 °F 29.99 in Calm   1.0 mph 97 % 0.00 in
07:11 73.2 °F 72.6 °F 29.99 in Calm     98 % 0.00 in
07:16 73.3 °F 72.7 °F 29.99 in Calm   1.0 mph 98 % 0.00 in
07:21 73.4 °F 72.8 °F 29.99 in Calm     98 % 0.00 in
07:26 73.5 °F 72.9 °F 29.99 in Calm     98 % 0.00 in
07:31 73.5 °F 72.9 °F 29.99 in Calm     98 % 0.00 in
07:35 73.6 °F 73.0 °F 29.99 in Calm     98 % 0.00 in
07:40 73.7 °F 73.1 °F 29.99 in Calm     98 % 0.00 in
07:45 73.7 °F 73.1 °F 30.00 in Calm     98 % 0.00 in
07:50 73.7 °F 73.1 °F 30.00 in Calm     98 % 0.00 in
07:56 73.8 °F 73.2 °F 30.00 in Calm     98 % 0.00 in
08:01 73.8 °F 73.2 °F 30.00 in Calm     98 % 0.00 in
08:06 73.9 °F 73.3 °F 30.00 in Calm     98 % 0.00 in
08:11 74.0 °F 73.4 °F 30.00 in Calm     98 % 0.00 in
08:16 74.0 °F 73.4 °F 30.00 in Calm     98 % 0.00 in
08:21 74.1 °F 73.5 °F 30.00 in Calm   1.0 mph 98 % 0.00 in
08:26 74.2 °F 73.6 °F 30.00 in SSE 0.1 mph 1.2 mph 98 % 0.00 in
08:31 74.2 °F 73.6 °F 30.00 in SSE 0.1 mph 1.2 mph 98 % 0.00 in
08:36 74.2 °F 73.6 °F 30.00 in SSE 0.3 mph 1.2 mph 98 % 0.00 in
08:41 74.2 °F 73.6 °F 29.99 in SSE 0.1 mph 1.2 mph 98 % 0.00 in
08:46 74.2 °F 73.6 °F 30.00 in SE 1.7 mph 5.0 mph 98 % 0.00 in
08:52 74.3 °F 73.7 °F 30.00 in SE 1.1 mph 4.6 mph 98 % 0.00 in
08:57 74.6 °F 74.0 °F 30.00 in ESE 2.1 mph 4.6 mph 98 % 0.00 in
09:02 75.0 °F 74.4 °F 30.00 in SE 1.4 mph 6.9 mph 98 % 0.00 in
09:07 75.4 °F 74.8 °F 30.00 in SE 0.9 mph 2.3 mph 98 % 0.00 in
09:12 75.6 °F 75.0 °F 30.00 in SE 0.9 mph 3.5 mph 98 % 0.00 in
09:17 75.8 °F 75.2 °F 29.99 in SSE 3.1 mph 5.0 mph 98 % 0.00 in
09:22 75.8 °F 74.9 °F 29.99 in SE 1.1 mph 6.9 mph 97 % 0.00 in
09:27 76.0 °F 74.8 °F 29.99 in East 1.7 mph 5.8 mph 96 % 0.00 in
09:32 76.4 °F 75.2 °F 29.99 in SSE 2.7 mph 4.0 mph 96 % 0.00 in
09:37 76.7 °F 75.5 °F 29.99 in ESE 0.8 mph 2.3 mph 96 % 0.00 in
09:43 77.0 °F 75.5 °F 29.99 in SE 1.3 mph 5.0 mph 95 % 0.00 in
09:48 77.2 °F 75.0 °F 29.99 in SE 3.3 mph 5.0 mph 93 % 0.00 in
09:53 77.3 °F 74.8 °F 29.99 in ESE 3.0 mph 5.8 mph 92 % 0.00 in
09:58 77.6 °F 75.1 °F 29.99 in SE 3.7 mph 5.8 mph 92 % 0.00 in
10:03 77.9 °F 75.4 °F 29.99 in SE 1.5 mph 3.5 mph 92 % 0.00 in
10:08 78.0 °F 75.2 °F 30.00 in SE 1.0 mph 4.0 mph 91 % 0.00 in
10:13 78.0 °F 74.5 °F 29.99 in ESE 5.5 mph 8.1 mph 89 % 0.00 in
10:18 78.1 °F 74.9 °F 30.00 in SE 0.2 mph 3.5 mph 90 % 0.00 in
10:23 78.1 °F 74.6 °F 30.00 in ESE 0.3 mph 3.5 mph 89 % 0.00 in
10:28 78.1 °F 74.3 °F 30.00 in SE 0.7 mph 2.3 mph 88 % 0.00 in
10:34 78.3 °F 74.8 °F 30.00 in SSE 0.7 mph 2.3 mph 89 % 0.00 in
10:39 78.4 °F 74.9 °F 30.00 in ESE 0.7 mph 2.3 mph 89 % 0.00 in
10:44 78.4 °F 74.5 °F 30.00 in SE 1.0 mph 3.5 mph 88 % 0.00 in
10:49 78.4 °F 74.2 °F 30.00 in SE 1.2 mph 3.5 mph 87 % 0.00 in
10:54 78.4 °F 74.2 °F 30.00 in SE 4.0 mph 6.9 mph 87 % 0.00 in
10:59 78.4 °F 74.5 °F 30.00 in ESE 1.4 mph 3.0 mph 88 % 0.00 in
11:04 78.4 °F 74.5 °F 30.00 in ESE 1.1 mph 3.5 mph 88 % 0.00 in
11:09 78.4 °F 74.5 °F 30.00 in ESE 1.3 mph 2.3 mph 88 % 0.00 in
11:14 78.4 °F 74.2 °F 30.00 in ESE 0.9 mph 2.3 mph 87 % 0.00 in
11:19 78.4 °F 74.2 °F 30.00 in East 1.4 mph 2.3 mph 87 % 0.00 in
11:25 78.7 °F 74.8 °F 30.00 in ESE 2.4 mph 4.6 mph 88 % 0.00 in
11:30 78.9 °F 74.7 °F 30.00 in ESE 1.2 mph 3.5 mph 87 % 0.00 in
11:35 79.4 °F 74.8 °F 30.00 in SSE 2.6 mph 9.2 mph 86 % 0.00 in
11:40 79.9 °F 75.3 °F 29.99 in ESE 3.2 mph 11.5 mph 86 % 0.00 in
11:45 80.2 °F 74.2 °F 29.99 in ESE 5.1 mph 9.2 mph 82 % 0.00 in
11:55 81.7 °F 75.3 °F 30.00 in East 3.8 mph 6.0 mph 81 % 0.00 in
12:00 81.8 °F 75.0 °F 30.00 in East 2.2 mph 4.6 mph 80 % 0.00 in
12:05 81.5 °F 74.7 °F 30.00 in ESE 0.8 mph 3.5 mph 80 % 0.00 in
12:10 81.1 °F 73.6 °F 30.00 in SE 4.3 mph 5.8 mph 78 % 0.00 in
12:16 80.8 °F 73.7 °F 30.00 in SE 2.0 mph 7.0 mph 79 % 0.00 in
12:21 80.4 °F 74.0 °F 29.99 in ESE 1.7 mph 3.5 mph 81 % 0.00 in
12:26 80.4 °F 74.4 °F 29.99 in ESE 1.0 mph 3.0 mph 82 % 0.00 in
12:31 80.6 °F 74.6 °F 29.99 in SE 1.0 mph 8.0 mph 82 % 0.00 in
12:36 80.8 °F 74.4 °F 29.99 in SE 1.0 mph 3.0 mph 81 % 0.00 in
12:41 80.8 °F 74.4 °F 29.99 in ESE 1.0 mph 6.0 mph 81 % 0.00 in
12:46 81.0 °F 75.0 °F 29.99 in ESE 1.3 mph 3.5 mph 82 % 0.00 in
12:51 81.0 °F 73.5 °F 29.99 in SE 5.0 mph 10.0 mph 78 % 0.00 in
12:56 81.1 °F 74.3 °F 29.99 in SE 1.0 mph 7.0 mph 80 % 0.00 in
13:01 81.0 °F 73.9 °F 29.99 in SE 2.0 mph 6.9 mph 79 % 0.00 in
13:06 80.9 °F 74.1 °F 29.98 in SSE 1.6 mph 5.8 mph 80 % 0.00 in
13:16 80.6 °F 73.9 °F 29.99 in SE 3.9 mph 8.1 mph 80 % 0.00 in
13:21 80.4 °F 73.3 °F 29.99 in ESE 2.2 mph 4.0 mph 79 % 0.00 in
13:26 80.1 °F 73.0 °F 29.99 in SE 4.8 mph 9.2 mph 79 % 0.00 in
13:31 79.7 °F 72.6 °F 29.99 in SE 0.9 mph 4.0 mph 79 % 0.00 in
13:36 79.6 °F 73.6 °F 29.99 in SE 0.4 mph 5.8 mph 82 % 0.00 in
13:41 79.4 °F 73.4 °F 29.99 in ESE 0.2 mph 2.3 mph 82 % 0.00 in
13:46 79.3 °F 73.7 °F 29.99 in ESE 0.4 mph 1.2 mph 83 % 0.00 in
13:52 79.2 °F 73.6 °F 29.99 in SE 0.8 mph 4.6 mph 83 % 0.00 in
13:57 79.3 °F 73.7 °F 29.99 in SE 0.1 mph 3.5 mph 83 % 0.00 in
14:02 79.4 °F 73.8 °F 29.99 in NNE 3.0 mph 6.9 mph 83 % 0.00 in
14:07 79.6 °F 74.3 °F 29.99 in ENE 1.5 mph 4.6 mph 84 % 0.00 in
14:12 79.4 °F 73.8 °F 29.99 in NE 1.7 mph 3.5 mph 83 % 0.00 in
14:17 79.4 °F 74.1 °F 29.99 in ENE 1.9 mph 2.3 mph 84 % 0.00 in
14:27 79.0 °F 74.1 °F 29.99 in ENE 2.8 mph 3.5 mph 85 % 0.00 in
14:32 78.7 °F 74.2 °F 29.99 in ENE 2.5 mph 3.5 mph 86 % 0.00 in
14:37 78.5 °F 74.0 °F 29.99 in East 2.2 mph 3.5 mph 86 % 0.00 in
14:43 78.3 °F 74.1 °F 29.99 in ENE 3.2 mph 6.9 mph 87 % 0.00 in
14:48 78.4 °F 74.2 °F 29.99 in East 2.2 mph 4.6 mph 87 % 0.00 in
14:53 78.6 °F 74.4 °F 29.98 in ENE 2.8 mph 4.6 mph 87 % 0.00 in
14:58 78.8 °F 74.3 °F 29.98 in ENE 2.7 mph 3.5 mph 86 % 0.00 in
15:03 79.1 °F 74.5 °F 29.98 in ENE 2.9 mph 3.5 mph 86 % 0.01 in
15:08 79.4 °F 74.5 °F 29.98 in East 3.4 mph 5.0 mph 85 % 0.01 in
15:13 79.8 °F 74.9 °F 29.98 in ENE 3.2 mph 4.0 mph 85 % 0.01 in
15:18 79.9 °F 74.6 °F 29.98 in ENE 3.1 mph 4.6 mph 84 % 0.01 in
15:23 79.8 °F 74.5 °F 29.98 in ENE 2.9 mph 4.6 mph 84 % 0.01 in
15:28 79.7 °F 74.8 °F 29.97 in East 2.8 mph 3.5 mph 85 % 0.01 in
15:34 79.8 °F 74.9 °F 29.97 in ENE 2.4 mph 3.5 mph 85 % 0.01 in
15:44 79.9 °F 74.6 °F 29.97 in ENE 2.8 mph 3.5 mph 84 % 0.01 in
15:49 80.1 °F 74.5 °F 29.96 in East 2.8 mph 4.6 mph 83 % 0.01 in
15:54 80.0 °F 74.7 °F 29.96 in East 2.5 mph 3.5 mph 84 % 0.01 in
15:59 79.8 °F 74.5 °F 29.96 in East 2.7 mph 4.6 mph 84 % 0.01 in
16:04 79.6 °F 74.3 °F 29.96 in East 1.9 mph 3.5 mph 84 % 0.00 in
16:09 79.4 °F 73.8 °F 29.96 in ENE 2.6 mph 3.5 mph 83 % 0.00 in
16:14 79.1 °F 73.8 °F 29.96 in ENE 2.3 mph 3.5 mph 84 % 0.00 in
16:19 78.9 °F 73.7 °F 29.96 in ENE 2.4 mph 4.6 mph 84 % 0.00 in
16:25 78.8 °F 73.6 °F 29.96 in ENE 2.2 mph 4.0 mph 84 % 0.00 in
16:30 78.6 °F 73.4 °F 29.96 in ENE 2.0 mph 3.5 mph 84 % 0.00 in
16:35 78.5 °F 73.3 °F 29.96 in ENE 2.3 mph 3.5 mph 84 % 0.00 in
16:40 78.3 °F 73.1 °F 29.96 in ENE 2.2 mph 3.5 mph 84 % 0.00 in
16:45 78.1 °F 72.9 °F 29.96 in ENE 1.9 mph 3.5 mph 84 % 0.00 in
16:50 78.0 °F 73.1 °F 29.96 in ENE 1.6 mph 2.3 mph 85 % 0.00 in
16:55 78.0 °F 73.5 °F 29.96 in ENE 0.9 mph 2.3 mph 86 % 0.00 in
17:00 77.9 °F 73.4 °F 29.96 in ENE 1.4 mph 2.3 mph 86 % 0.00 in
17:05 77.9 °F 73.4 °F 29.96 in East 0.7 mph 2.3 mph 86 % 0.00 in
17:11 77.8 °F 73.3 °F 29.96 in ENE 1.2 mph 2.3 mph 86 % 0.00 in
17:16 77.8 °F 73.3 °F 29.96 in ENE 1.0 mph 3.0 mph 86 % 0.00 in
17:21 77.8 °F 73.3 °F 29.96 in ENE 1.0 mph 2.0 mph 86 % 0.00 in
17:26 77.8 °F 73.3 °F 29.97 in ENE 1.0 mph 3.0 mph 86 % 0.00 in
17:31 77.7 °F 73.5 °F 29.97 in ENE 1.0 mph 2.0 mph 87 % 0.00 in
17:36 77.7 °F 73.1 °F 29.97 in ENE 1.0 mph 2.0 mph 86 % 0.00 in
17:41 77.6 °F 73.0 °F 29.96 in ENE 1.0 mph 2.0 mph 86 % 0.00 in
17:46 77.4 °F 73.2 °F 29.97 in ENE 1.0 mph 2.0 mph 87 % 0.00 in
17:51 77.3 °F 73.1 °F 29.96 in ENE 1.0 mph 2.0 mph 87 % 0.00 in
17:56 77.2 °F 73.0 °F 29.96 in Calm   2.0 mph 87 % 0.00 in
18:01 77.2 °F 73.0 °F 29.96 in ENE 0.5 mph 1.2 mph 87 % 0.00 in
18:06 77.3 °F 72.8 °F 29.96 in ENE 0.7 mph 1.2 mph 86 % 0.00 in
18:11 77.3 °F 72.4 °F 29.96 in SE 1.2 mph 3.0 mph 85 % 0.00 in
18:16 77.3 °F 72.4 °F 29.96 in SE 0.8 mph 2.3 mph 85 % 0.00 in
18:21 77.2 °F 72.0 °F 29.96 in SE 1.4 mph 4.0 mph 84 % 0.00 in
18:26 77.2 °F 71.6 °F 29.96 in ESE 0.5 mph 2.3 mph 83 % 0.00 in
18:31 77.2 °F 72.0 °F 29.96 in ESE 0.2 mph 1.2 mph 84 % 0.00 in
18:36 77.1 °F 71.9 °F 29.96 in ESE 0.1 mph 1.2 mph 84 % 0.00 in
18:41 77.1 °F 71.9 °F 29.96 in SSE 0.8 mph 3.5 mph 84 % 0.00 in
18:47 77.1 °F 71.9 °F 29.96 in SE 2.1 mph 5.8 mph 84 % 0.00 in
18:52 76.9 °F 72.0 °F 29.96 in SE 1.8 mph 8.1 mph 85 % 0.00 in
18:57 76.7 °F 71.8 °F 29.96 in SE 3.0 mph 6.0 mph 85 % 0.00 in
19:02 76.4 °F 71.6 °F 29.96 in ESE 2.3 mph 4.6 mph 85 % 0.00 in
19:07 76.3 °F 71.8 °F 29.97 in ESE 5.1 mph 6.9 mph 86 % 0.00 in
19:12 75.9 °F 71.1 °F 29.97 in SE 2.4 mph 3.5 mph 85 % 0.00 in
19:17 75.7 °F 71.2 °F 29.97 in ESE 4.2 mph 6.9 mph 86 % 0.00 in
19:22 75.5 °F 71.4 °F 29.98 in SE 1.5 mph 6.0 mph 87 % 0.00 in
19:27 75.2 °F 71.7 °F 29.98 in ESE 1.8 mph 5.0 mph 89 % 0.00 in
19:32 74.9 °F 71.8 °F 29.98 in ESE 0.7 mph 3.5 mph 90 % 0.00 in
19:38 74.5 °F 71.4 °F 29.98 in ESE 0.5 mph 2.0 mph 90 % 0.00 in
19:43 74.2 °F 71.4 °F 29.98 in ESE 1.9 mph 2.3 mph 91 % 0.00 in
19:48 74.0 °F 71.2 °F 29.98 in ESE 0.5 mph 2.3 mph 91 % 0.00 in
19:53 73.8 °F 71.3 °F 29.98 in ESE 1.2 mph 3.5 mph 92 % 0.00 in
19:58 73.6 °F 71.4 °F 29.98 in ESE 0.6 mph 1.2 mph 93 % 0.00 in
20:03 73.5 °F 71.4 °F 29.97 in ESE 0.6 mph 2.3 mph 93 % 0.00 in
20:08 73.4 °F 71.3 °F 29.98 in ESE 0.3 mph 1.2 mph 93 % 0.00 in
20:13 73.3 °F 71.2 °F 29.97 in ESE 0.4 mph 1.2 mph 93 % 0.00 in
20:18 73.3 °F 71.2 °F 29.98 in Calm   1.2 mph 93 % 0.00 in
20:23 73.2 °F 71.4 °F 29.98 in ESE 0.2 mph 1.2 mph 94 % 0.00 in
20:29 73.2 °F 71.4 °F 29.98 in ESE 0.2 mph 1.2 mph 94 % 0.00 in
20:34 73.1 °F 71.3 °F 29.98 in ESE 0.4 mph 1.2 mph 94 % 0.00 in
20:39 73.0 °F 71.2 °F 29.98 in ESE 0.6 mph 1.2 mph 94 % 0.00 in
20:44 73.0 °F 71.2 °F 29.98 in ESE 0.1 mph 1.2 mph 94 % 0.00 in
20:49 72.9 °F 71.1 °F 29.99 in ESE 0.3 mph 1.2 mph 94 % 0.00 in
20:54 72.9 °F 71.4 °F 29.99 in ENE 0.7 mph 1.2 mph 95 % 0.00 in
20:59 72.9 °F 71.4 °F 29.99 in ENE 0.9 mph 2.3 mph 95 % 0.00 in
21:04 72.8 °F 71.3 °F 29.99 in ENE 1.1 mph 2.3 mph 95 % 0.00 in
21:09 72.8 °F 71.3 °F 29.99 in ENE 0.8 mph 2.3 mph 95 % 0.00 in
21:14 72.8 °F 71.3 °F 29.99 in ENE 0.7 mph 2.3 mph 95 % 0.00 in
21:19 72.8 °F 71.3 °F 29.99 in East 0.5 mph 2.3 mph 95 % 0.00 in
21:24 72.7 °F 71.2 °F 30.00 in East 0.4 mph 1.2 mph 95 % 0.00 in
21:30 72.7 °F 70.9 °F 30.00 in East 0.8 mph 2.3 mph 94 % 0.00 in
21:35 72.7 °F 70.9 °F 30.00 in East 0.6 mph 1.2 mph 94 % 0.00 in
21:40 72.6 °F 70.8 °F 30.00 in East 0.3 mph 1.2 mph 94 % 0.00 in
21:45 72.6 °F 71.1 °F 30.00 in East 0.5 mph 1.2 mph 95 % 0.00 in
21:50 72.6 °F 70.8 °F 30.00 in East 0.9 mph 2.3 mph 94 % 0.00 in
21:55 72.5 °F 70.7 °F 30.00 in East 0.4 mph 1.2 mph 94 % 0.00 in
22:00 72.5 °F 70.7 °F 29.99 in East 0.7 mph 1.2 mph 94 % 0.00 in
22:05 72.4 °F 70.6 °F 29.99 in ENE 1.4 mph 3.5 mph 94 % 0.00 in
22:10 72.4 °F 70.6 °F 29.99 in ENE 1.9 mph 3.5 mph 94 % 0.00 in
22:15 72.4 °F 70.6 °F 29.99 in ENE 2.0 mph 3.5 mph 94 % 0.00 in
22:21 72.5 °F 70.7 °F 29.99 in ENE 2.0 mph 7.0 mph 94 % 0.00 in
22:26 72.5 °F 70.7 °F 29.99 in ENE 3.0 mph 7.0 mph 94 % 0.00 in
22:31 72.5 °F 70.7 °F 29.99 in ENE 6.0 mph 8.0 mph 94 % 0.00 in
22:36 72.6 °F 70.8 °F 29.99 in ENE 7.0 mph 13.0 mph 94 % 0.00 in
22:41 72.5 °F 71.0 °F 29.99 in ENE 5.0 mph 12.0 mph 95 % 0.00 in
22:56 72.3 °F 70.8 °F 30.00 in ENE 7.0 mph 13.0 mph 95 % 0.00 in
23:01 72.2 °F 70.7 °F 30.00 in NE 6.7 mph 8.1 mph 95 % 0.00 in
23:06 72.2 °F 70.7 °F 30.00 in ENE 8.3 mph 12.7 mph 95 % 0.00 in
23:11 72.1 °F 70.6 °F 30.00 in East 6.0 mph 11.5 mph 95 % 0.00 in
23:16 72.1 °F 70.6 °F 30.00 in ENE 7.4 mph 12.7 mph 95 % 0.00 in
23:21 72.0 °F 70.5 °F 30.00 in East 5.1 mph 9.2 mph 95 % 0.00 in
23:26 71.8 °F 70.0 °F 30.01 in ENE 3.9 mph 4.6 mph 94 % 0.00 in
23:31 71.6 °F 69.8 °F 30.01 in ENE 3.5 mph 8.1 mph 94 % 0.00 in
23:36 71.6 °F 69.8 °F 30.01 in East 2.0 mph 3.5 mph 94 % 0.00 in
23:41 71.6 °F 69.8 °F 30.01 in East 1.6 mph 3.5 mph 94 % 0.00 in
23:47 71.6 °F 69.8 °F 30.01 in East 1.5 mph 2.3 mph 94 % 0.00 in
23:52 71.5 °F 69.7 °F 30.01 in East 0.6 mph 1.2 mph 94 % 0.01 in
23:57 71.5 °F 70.0 °F 30.01 in East 0.3 mph 1.2 mph 95 % 0.01 in
Crab Meadow Weather
Compliments of Weather Underground - 3 mb

Script developed by  Jim McMurry - jmcmurry@mwt.net Adapted for the template by  Wim van der Kuil - Leuven-Template.eu

Recycling: To produce each week's Sunday newspapers, 500,000 trees must be cut down.